sensor_id;sensor_type;location;lat;lon;timestamp;P1;durP1;ratioP1;P2;durP2;ratioP2
20657;SDS011;10488;50.846;4.078;2022-08-01T00:01:55;3.95;;;2.08;;
20657;SDS011;10488;50.846;4.078;2022-08-01T00:04:21;3.85;;;2.22;;
20657;SDS011;10488;50.846;4.078;2022-08-01T00:06:46;5.15;;;2.30;;
20657;SDS011;10488;50.846;4.078;2022-08-01T00:09:12;5.57;;;2.88;;
20657;SDS011;10488;50.846;4.078;2022-08-01T00:11:37;6.07;;;2.60;;
20657;SDS011;10488;50.846;4.078;2022-08-01T00:14:03;4.82;;;2.20;;
20657;SDS011;10488;50.846;4.078;2022-08-01T00:16:29;2.50;;;2.10;;
20657;SDS011;10488;50.846;4.078;2022-08-01T00:18:54;6.25;;;2.53;;
20657;SDS011;10488;50.846;4.078;2022-08-01T00:21:20;8.32;;;2.65;;
20657;SDS011;10488;50.846;4.078;2022-08-01T00:23:46;6.40;;;2.92;;
20657;SDS011;10488;50.846;4.078;2022-08-01T00:26:12;6.32;;;2.50;;
20657;SDS011;10488;50.846;4.078;2022-08-01T00:28:38;3.90;;;2.60;;
20657;SDS011;10488;50.846;4.078;2022-08-01T00:31:05;5.90;;;2.88;;
20657;SDS011;10488;50.846;4.078;2022-08-01T00:33:30;11.50;;;3.35;;
20657;SDS011;10488;50.846;4.078;2022-08-01T00:35:56;5.30;;;3.30;;
20657;SDS011;10488;50.846;4.078;2022-08-01T00:38:22;5.68;;;2.92;;
20657;SDS011;10488;50.846;4.078;2022-08-01T00:40:48;7.35;;;3.28;;
20657;SDS011;10488;50.846;4.078;2022-08-01T00:43:14;5.22;;;3.28;;
20657;SDS011;10488;50.846;4.078;2022-08-01T00:45:40;7.65;;;3.60;;
20657;SDS011;10488;50.846;4.078;2022-08-01T00:48:06;6.65;;;2.88;;
20657;SDS011;10488;50.846;4.078;2022-08-01T00:50:32;9.35;;;3.47;;
20657;SDS011;10488;50.846;4.078;2022-08-01T00:52:58;8.25;;;3.42;;
20657;SDS011;10488;50.846;4.078;2022-08-01T00:55:26;9.30;;;3.90;;
20657;SDS011;10488;50.846;4.078;2022-08-01T00:57:52;5.68;;;3.67;;
20657;SDS011;10488;50.846;4.078;2022-08-01T01:00:18;7.38;;;3.00;;
20657;SDS011;10488;50.846;4.078;2022-08-01T01:02:44;6.55;;;3.80;;
20657;SDS011;10488;50.846;4.078;2022-08-01T01:05:10;6.93;;;3.78;;
20657;SDS011;10488;50.846;4.078;2022-08-01T01:07:50;7.15;;;4.75;;
20657;SDS011;10488;50.846;4.078;2022-08-01T01:13:00;9.57;;;4.90;;
20657;SDS011;10488;50.846;4.078;2022-08-01T01:18:11;13.23;;;5.32;;
20657;SDS011;10488;50.846;4.078;2022-08-01T01:20:45;10.65;;;5.25;;
20657;SDS011;10488;50.846;4.078;2022-08-01T01:31:55;15.60;;;6.82;;
20657;SDS011;10488;50.846;4.078;2022-08-01T01:34:27;13.85;;;6.95;;
20657;SDS011;10488;50.846;4.078;2022-08-01T01:36:54;15.70;;;7.72;;
20657;SDS011;10488;50.846;4.078;2022-08-01T01:39:21;14.75;;;7.63;;
20657;SDS011;10488;50.846;4.078;2022-08-01T01:41:50;14.27;;;6.53;;
20657;SDS011;10488;50.846;4.078;2022-08-01T01:44:18;8.65;;;4.93;;
20657;SDS011;10488;50.846;4.078;2022-08-01T01:46:44;10.90;;;5.40;;
20657;SDS011;10488;50.846;4.078;2022-08-01T01:49:11;11.48;;;6.20;;
20657;SDS011;10488;50.846;4.078;2022-08-01T01:51:38;15.80;;;5.22;;
20657;SDS011;10488;50.846;4.078;2022-08-01T01:54:05;15.50;;;5.05;;
20657;SDS011;10488;50.846;4.078;2022-08-01T01:56:33;13.55;;;4.78;;
20657;SDS011;10488;50.846;4.078;2022-08-01T01:59:13;14.23;;;4.97;;
20657;SDS011;10488;50.846;4.078;2022-08-01T02:01:49;12.93;;;4.45;;
20657;SDS011;10488;50.846;4.078;2022-08-01T02:04:16;7.05;;;4.95;;
20657;SDS011;10488;50.846;4.078;2022-08-01T02:06:45;11.60;;;4.68;;
20657;SDS011;10488;50.846;4.078;2022-08-01T02:09:12;10.15;;;5.28;;
20657;SDS011;10488;50.846;4.078;2022-08-01T02:11:42;8.88;;;5.32;;
20657;SDS011;10488;50.846;4.078;2022-08-01T02:14:09;13.35;;;5.20;;
20657;SDS011;10488;50.846;4.078;2022-08-01T02:16:36;13.38;;;4.85;;
20657;SDS011;10488;50.846;4.078;2022-08-01T02:19:05;16.25;;;5.93;;
20657;SDS011;10488;50.846;4.078;2022-08-01T02:21:32;10.73;;;5.60;;
20657;SDS011;10488;50.846;4.078;2022-08-01T02:24:07;13.65;;;5.65;;
20657;SDS011;10488;50.846;4.078;2022-08-01T02:26:40;11.77;;;6.18;;
20657;SDS011;10488;50.846;4.078;2022-08-01T02:29:09;12.00;;;5.00;;
20657;SDS011;10488;50.846;4.078;2022-08-01T02:31:38;12.85;;;6.30;;
20657;SDS011;10488;50.846;4.078;2022-08-01T02:34:06;11.65;;;5.82;;
20657;SDS011;10488;50.846;4.078;2022-08-01T02:36:35;15.85;;;6.22;;
20657;SDS011;10488;50.846;4.078;2022-08-01T02:39:03;13.45;;;6.13;;
20657;SDS011;10488;50.846;4.078;2022-08-01T02:41:33;8.88;;;5.93;;
20657;SDS011;10488;50.846;4.078;2022-08-01T02:44:05;11.15;;;6.57;;
20657;SDS011;10488;50.846;4.078;2022-08-01T02:46:38;13.43;;;8.27;;
20657;SDS011;10488;50.846;4.078;2022-08-01T02:49:07;14.35;;;6.88;;
20657;SDS011;10488;50.846;4.078;2022-08-01T02:51:35;19.35;;;8.18;;
20657;SDS011;10488;50.846;4.078;2022-08-01T02:54:02;17.17;;;8.43;;
20657;SDS011;10488;50.846;4.078;2022-08-01T02:56:31;17.52;;;8.57;;
20657;SDS011;10488;50.846;4.078;2022-08-01T02:59:03;19.50;;;9.38;;
20657;SDS011;10488;50.846;4.078;2022-08-01T03:01:31;18.67;;;10.20;;
20657;SDS011;10488;50.846;4.078;2022-08-01T03:03:59;18.25;;;11.27;;
20657;SDS011;10488;50.846;4.078;2022-08-01T03:06:25;23.25;;;11.23;;
20657;SDS011;10488;50.846;4.078;2022-08-01T03:08:51;26.50;;;13.55;;
20657;SDS011;10488;50.846;4.078;2022-08-01T03:11:18;25.55;;;11.45;;
20657;SDS011;10488;50.846;4.078;2022-08-01T03:13:45;25.40;;;13.93;;
20657;SDS011;10488;50.846;4.078;2022-08-01T03:16:13;34.15;;;13.63;;
20657;SDS011;10488;50.846;4.078;2022-08-01T03:18:41;34.58;;;14.55;;
20657;SDS011;10488;50.846;4.078;2022-08-01T03:21:10;28.63;;;14.52;;
20657;SDS011;10488;50.846;4.078;2022-08-01T03:23:38;38.92;;;17.63;;
20657;SDS011;10488;50.846;4.078;2022-08-01T03:26:05;35.50;;;18.10;;
20657;SDS011;10488;50.846;4.078;2022-08-01T03:28:31;39.45;;;17.55;;
20657;SDS011;10488;50.846;4.078;2022-08-01T03:30:58;41.28;;;18.85;;
20657;SDS011;10488;50.846;4.078;2022-08-01T03:33:25;45.17;;;19.75;;
20657;SDS011;10488;50.846;4.078;2022-08-01T03:35:52;38.38;;;18.52;;
20657;SDS011;10488;50.846;4.078;2022-08-01T03:38:19;39.58;;;17.65;;
20657;SDS011;10488;50.846;4.078;2022-08-01T03:43:55;34.47;;;17.30;;
20657;SDS011;10488;50.846;4.078;2022-08-01T03:46:28;46.88;;;19.60;;
20657;SDS011;10488;50.846;4.078;2022-08-01T03:49:00;44.38;;;18.55;;
20657;SDS011;10488;50.846;4.078;2022-08-01T03:51:29;46.20;;;19.98;;
20657;SDS011;10488;50.846;4.078;2022-08-01T03:53:56;36.75;;;19.10;;
20657;SDS011;10488;50.846;4.078;2022-08-01T03:56:25;36.95;;;18.67;;
20657;SDS011;10488;50.846;4.078;2022-08-01T03:58:52;40.88;;;18.30;;
20657;SDS011;10488;50.846;4.078;2022-08-01T04:01:19;33.50;;;17.98;;
20657;SDS011;10488;50.846;4.078;2022-08-01T04:03:45;30.20;;;17.38;;
20657;SDS011;10488;50.846;4.078;2022-08-01T04:06:11;39.00;;;19.83;;
20657;SDS011;10488;50.846;4.078;2022-08-01T04:08:39;42.95;;;21.48;;
20657;SDS011;10488;50.846;4.078;2022-08-01T04:11:05;44.95;;;24.48;;
20657;SDS011;10488;50.846;4.078;2022-08-01T04:13:32;43.70;;;23.55;;
20657;SDS011;10488;50.846;4.078;2022-08-01T04:15:58;49.97;;;26.10;;
20657;SDS011;10488;50.846;4.078;2022-08-01T04:18:24;42.63;;;25.70;;
20657;SDS011;10488;50.846;4.078;2022-08-01T04:20:50;45.38;;;24.92;;
20657;SDS011;10488;50.846;4.078;2022-08-01T04:23:16;43.35;;;25.00;;
20657;SDS011;10488;50.846;4.078;2022-08-01T04:25:44;54.25;;;27.65;;
20657;SDS011;10488;50.846;4.078;2022-08-01T04:28:13;49.20;;;27.40;;
20657;SDS011;10488;50.846;4.078;2022-08-01T04:30:41;50.88;;;26.95;;
20657;SDS011;10488;50.846;4.078;2022-08-01T04:33:09;47.53;;;25.95;;
20657;SDS011;10488;50.846;4.078;2022-08-01T04:35:41;48.08;;;27.70;;
20657;SDS011;10488;50.846;4.078;2022-08-01T04:38:11;57.80;;;27.73;;
20657;SDS011;10488;50.846;4.078;2022-08-01T04:40:41;54.22;;;29.88;;
20657;SDS011;10488;50.846;4.078;2022-08-01T04:43:09;43.00;;;24.30;;
20657;SDS011;10488;50.846;4.078;2022-08-01T04:45:35;39.60;;;23.80;;
20657;SDS011;10488;50.846;4.078;2022-08-01T04:48:01;46.38;;;23.15;;
20657;SDS011;10488;50.846;4.078;2022-08-01T04:50:31;34.25;;;22.52;;
20657;SDS011;10488;50.846;4.078;2022-08-01T04:52:57;39.78;;;22.83;;
20657;SDS011;10488;50.846;4.078;2022-08-01T04:55:23;33.78;;;20.92;;
20657;SDS011;10488;50.846;4.078;2022-08-01T04:57:49;35.92;;;19.10;;
20657;SDS011;10488;50.846;4.078;2022-08-01T05:00:14;37.05;;;19.67;;
20657;SDS011;10488;50.846;4.078;2022-08-01T05:02:43;30.88;;;18.48;;
20657;SDS011;10488;50.846;4.078;2022-08-01T05:05:09;35.13;;;19.23;;
20657;SDS011;10488;50.846;4.078;2022-08-01T05:07:35;32.47;;;16.88;;
20657;SDS011;10488;50.846;4.078;2022-08-01T05:10:02;28.90;;;18.20;;
20657;SDS011;10488;50.846;4.078;2022-08-01T05:12:28;34.00;;;18.23;;
20657;SDS011;10488;50.846;4.078;2022-08-01T05:14:54;29.77;;;17.83;;
20657;SDS011;10488;50.846;4.078;2022-08-01T05:17:20;22.33;;;13.75;;
20657;SDS011;10488;50.846;4.078;2022-08-01T05:19:46;25.48;;;15.13;;
20657;SDS011;10488;50.846;4.078;2022-08-01T05:22:12;24.73;;;14.65;;
20657;SDS011;10488;50.846;4.078;2022-08-01T05:24:38;30.30;;;14.70;;
20657;SDS011;10488;50.846;4.078;2022-08-01T05:27:05;28.58;;;12.02;;
20657;SDS011;10488;50.846;4.078;2022-08-01T05:29:32;20.30;;;11.57;;
20657;SDS011;10488;50.846;4.078;2022-08-01T05:31:59;21.80;;;10.50;;
20657;SDS011;10488;50.846;4.078;2022-08-01T05:34:24;22.15;;;10.85;;
20657;SDS011;10488;50.846;4.078;2022-08-01T05:36:50;16.15;;;9.48;;
20657;SDS011;10488;50.846;4.078;2022-08-01T05:39:16;18.90;;;10.32;;
20657;SDS011;10488;50.846;4.078;2022-08-01T05:41:42;21.30;;;10.68;;
20657;SDS011;10488;50.846;4.078;2022-08-01T05:44:08;15.07;;;9.52;;
20657;SDS011;10488;50.846;4.078;2022-08-01T05:46:34;13.32;;;8.38;;
20657;SDS011;10488;50.846;4.078;2022-08-01T05:49:00;17.58;;;9.02;;
20657;SDS011;10488;50.846;4.078;2022-08-01T05:51:27;11.52;;;8.05;;
20657;SDS011;10488;50.846;4.078;2022-08-01T05:53:53;16.83;;;8.80;;
20657;SDS011;10488;50.846;4.078;2022-08-01T05:56:19;16.73;;;8.60;;
20657;SDS011;10488;50.846;4.078;2022-08-01T05:58:46;19.38;;;8.73;;
20657;SDS011;10488;50.846;4.078;2022-08-01T06:01:12;16.27;;;7.57;;
20657;SDS011;10488;50.846;4.078;2022-08-01T06:03:38;11.52;;;7.95;;
20657;SDS011;10488;50.846;4.078;2022-08-01T06:06:03;11.95;;;7.35;;
20657;SDS011;10488;50.846;4.078;2022-08-01T06:08:29;12.35;;;7.45;;
20657;SDS011;10488;50.846;4.078;2022-08-01T06:10:56;14.63;;;8.00;;
20657;SDS011;10488;50.846;4.078;2022-08-01T06:13:22;10.15;;;7.63;;
20657;SDS011;10488;50.846;4.078;2022-08-01T06:15:47;10.77;;;6.88;;
20657;SDS011;10488;50.846;4.078;2022-08-01T06:18:14;14.93;;;7.20;;
20657;SDS011;10488;50.846;4.078;2022-08-01T06:20:40;9.50;;;6.78;;
20657;SDS011;10488;50.846;4.078;2022-08-01T06:23:06;12.63;;;7.75;;
20657;SDS011;10488;50.846;4.078;2022-08-01T06:25:32;10.10;;;7.47;;
20657;SDS011;10488;50.846;4.078;2022-08-01T06:27:58;19.05;;;7.95;;
20657;SDS011;10488;50.846;4.078;2022-08-01T06:30:24;9.93;;;6.47;;
20657;SDS011;10488;50.846;4.078;2022-08-01T06:32:50;10.63;;;6.30;;
20657;SDS011;10488;50.846;4.078;2022-08-01T06:35:15;11.20;;;6.55;;
20657;SDS011;10488;50.846;4.078;2022-08-01T06:37:41;10.52;;;6.07;;
20657;SDS011;10488;50.846;4.078;2022-08-01T06:40:08;8.27;;;5.25;;
20657;SDS011;10488;50.846;4.078;2022-08-01T06:42:34;8.68;;;6.15;;
20657;SDS011;10488;50.846;4.078;2022-08-01T06:45:04;12.68;;;5.57;;
20657;SDS011;10488;50.846;4.078;2022-08-01T06:47:31;11.02;;;5.50;;
20657;SDS011;10488;50.846;4.078;2022-08-01T06:49:57;12.68;;;5.38;;
20657;SDS011;10488;50.846;4.078;2022-08-01T06:52:23;8.00;;;4.82;;
20657;SDS011;10488;50.846;4.078;2022-08-01T06:54:48;8.57;;;4.75;;
20657;SDS011;10488;50.846;4.078;2022-08-01T06:57:14;7.35;;;4.05;;
20657;SDS011;10488;50.846;4.078;2022-08-01T06:59:40;6.05;;;3.30;;
20657;SDS011;10488;50.846;4.078;2022-08-01T07:02:06;7.47;;;3.40;;
20657;SDS011;10488;50.846;4.078;2022-08-01T07:04:32;7.82;;;3.42;;
20657;SDS011;10488;50.846;4.078;2022-08-01T07:06:58;3.45;;;3.10;;
20657;SDS011;10488;50.846;4.078;2022-08-01T07:09:24;4.10;;;3.72;;
20657;SDS011;10488;50.846;4.078;2022-08-01T07:11:50;7.97;;;3.47;;
20657;SDS011;10488;50.846;4.078;2022-08-01T07:14:18;5.93;;;3.83;;
20657;SDS011;10488;50.846;4.078;2022-08-01T07:16:44;5.88;;;3.63;;
20657;SDS011;10488;50.846;4.078;2022-08-01T07:19:10;3.42;;;2.75;;
20657;SDS011;10488;50.846;4.078;2022-08-01T07:21:35;5.32;;;2.75;;
20657;SDS011;10488;50.846;4.078;2022-08-01T07:24:01;6.38;;;2.58;;
20657;SDS011;10488;50.846;4.078;2022-08-01T07:26:27;8.23;;;2.58;;
20657;SDS011;10488;50.846;4.078;2022-08-01T07:28:53;6.82;;;2.90;;
20657;SDS011;10488;50.846;4.078;2022-08-01T07:31:19;4.68;;;2.22;;
20657;SDS011;10488;50.846;4.078;2022-08-01T07:33:44;2.33;;;2.13;;
20657;SDS011;10488;50.846;4.078;2022-08-01T07:36:10;3.22;;;2.40;;
20657;SDS011;10488;50.846;4.078;2022-08-01T07:38:36;5.20;;;3.30;;
20657;SDS011;10488;50.846;4.078;2022-08-01T07:41:02;4.20;;;2.35;;
20657;SDS011;10488;50.846;4.078;2022-08-01T07:43:28;5.28;;;3.13;;
20657;SDS011;10488;50.846;4.078;2022-08-01T07:45:54;5.07;;;2.47;;
20657;SDS011;10488;50.846;4.078;2022-08-01T07:48:20;3.15;;;2.20;;
20657;SDS011;10488;50.846;4.078;2022-08-01T07:50:49;4.45;;;2.75;;
20657;SDS011;10488;50.846;4.078;2022-08-01T07:53:15;4.15;;;2.80;;
20657;SDS011;10488;50.846;4.078;2022-08-01T07:55:41;4.35;;;3.05;;
20657;SDS011;10488;50.846;4.078;2022-08-01T07:58:07;4.10;;;2.75;;
20657;SDS011;10488;50.846;4.078;2022-08-01T08:00:33;4.47;;;3.55;;
20657;SDS011;10488;50.846;4.078;2022-08-01T08:02:59;5.18;;;3.28;;
20657;SDS011;10488;50.846;4.078;2022-08-01T08:05:25;5.00;;;4.07;;
20657;SDS011;10488;50.846;4.078;2022-08-01T08:07:51;7.53;;;4.53;;
20657;SDS011;10488;50.846;4.078;2022-08-01T08:10:17;6.30;;;4.13;;
20657;SDS011;10488;50.846;4.078;2022-08-01T08:12:42;9.40;;;5.03;;
20657;SDS011;10488;50.846;4.078;2022-08-01T08:15:08;5.63;;;3.67;;
20657;SDS011;10488;50.846;4.078;2022-08-01T08:17:34;5.72;;;3.10;;
20657;SDS011;10488;50.846;4.078;2022-08-01T08:20:01;3.08;;;1.98;;
20657;SDS011;10488;50.846;4.078;2022-08-01T08:22:28;4.00;;;1.90;;
20657;SDS011;10488;50.846;4.078;2022-08-01T08:24:53;2.00;;;1.80;;
20657;SDS011;10488;50.846;4.078;2022-08-01T08:27:19;3.47;;;2.17;;
20657;SDS011;10488;50.846;4.078;2022-08-01T08:29:44;2.20;;;1.98;;
20657;SDS011;10488;50.846;4.078;2022-08-01T08:32:10;3.10;;;1.80;;
20657;SDS011;10488;50.846;4.078;2022-08-01T08:34:36;3.28;;;1.80;;
20657;SDS011;10488;50.846;4.078;2022-08-01T08:37:02;3.88;;;2.10;;
20657;SDS011;10488;50.846;4.078;2022-08-01T08:39:28;3.90;;;3.30;;
20657;SDS011;10488;50.846;4.078;2022-08-01T08:41:56;4.05;;;3.58;;
20657;SDS011;10488;50.846;4.078;2022-08-01T08:44:24;3.78;;;3.40;;
20657;SDS011;10488;50.846;4.078;2022-08-01T08:46:50;3.92;;;3.58;;
20657;SDS011;10488;50.846;4.078;2022-08-01T08:49:18;8.38;;;5.60;;
20657;SDS011;10488;50.846;4.078;2022-08-01T08:51:47;5.88;;;5.25;;
20657;SDS011;10488;50.846;4.078;2022-08-01T08:54:14;6.82;;;6.03;;
20657;SDS011;10488;50.846;4.078;2022-08-01T08:56:40;8.15;;;6.65;;
20657;SDS011;10488;50.846;4.078;2022-08-01T08:59:07;7.85;;;6.90;;
20657;SDS011;10488;50.846;4.078;2022-08-01T09:01:33;8.68;;;6.38;;
20657;SDS011;10488;50.846;4.078;2022-08-01T09:04:00;7.22;;;6.53;;
20657;SDS011;10488;50.846;4.078;2022-08-01T09:06:29;8.65;;;5.78;;
20657;SDS011;10488;50.846;4.078;2022-08-01T09:08:56;6.88;;;6.18;;
20657;SDS011;10488;50.846;4.078;2022-08-01T09:11:22;6.28;;;5.47;;
20657;SDS011;10488;50.846;4.078;2022-08-01T09:14:09;5.40;;;4.90;;
20657;SDS011;10488;50.846;4.078;2022-08-01T09:16:35;6.15;;;3.97;;
20657;SDS011;10488;50.846;4.078;2022-08-01T09:19:06;4.95;;;4.10;;
20657;SDS011;10488;50.846;4.078;2022-08-01T09:22:04;2.92;;;2.10;;
20657;SDS011;10488;50.846;4.078;2022-08-01T09:24:30;5.43;;;2.72;;
20657;SDS011;10488;50.846;4.078;2022-08-01T09:26:57;3.15;;;2.80;;
20657;SDS011;10488;50.846;4.078;2022-08-01T09:29:24;4.35;;;2.00;;
20657;SDS011;10488;50.846;4.078;2022-08-01T09:31:52;2.55;;;2.35;;
20657;SDS011;10488;50.846;4.078;2022-08-01T09:34:35;6.60;;;1.83;;
20657;SDS011;10488;50.846;4.078;2022-08-01T09:37:02;2.70;;;1.70;;
20657;SDS011;10488;50.846;4.078;2022-08-01T09:39:31;2.00;;;1.65;;
20657;SDS011;10488;50.846;4.078;2022-08-01T09:42:01;1.98;;;1.45;;
20657;SDS011;10488;50.846;4.078;2022-08-01T09:44:48;2.35;;;1.70;;
20657;SDS011;10488;50.846;4.078;2022-08-01T09:47:14;1.67;;;1.30;;
20657;SDS011;10488;50.846;4.078;2022-08-01T09:49:42;3.42;;;1.88;;
20657;SDS011;10488;50.846;4.078;2022-08-01T09:52:10;1.92;;;1.70;;
20657;SDS011;10488;50.846;4.078;2022-08-01T09:54:36;4.53;;;2.33;;
20657;SDS011;10488;50.846;4.078;2022-08-01T09:57:15;2.28;;;1.92;;
20657;SDS011;10488;50.846;4.078;2022-08-01T09:59:44;4.15;;;3.10;;
20657;SDS011;10488;50.846;4.078;2022-08-01T10:02:11;3.08;;;2.78;;
20657;SDS011;10488;50.846;4.078;2022-08-01T10:04:50;3.47;;;1.85;;
20657;SDS011;10488;50.846;4.078;2022-08-01T10:07:16;3.80;;;3.47;;
20657;SDS011;10488;50.846;4.078;2022-08-01T10:09:43;3.80;;;3.45;;
20657;SDS011;10488;50.846;4.078;2022-08-01T10:12:12;3.72;;;3.42;;
20657;SDS011;10488;50.846;4.078;2022-08-01T10:14:40;3.55;;;3.25;;
20657;SDS011;10488;50.846;4.078;2022-08-01T10:17:07;3.67;;;3.13;;
20657;SDS011;10488;50.846;4.078;2022-08-01T10:19:34;4.72;;;3.70;;
20657;SDS011;10488;50.846;4.078;2022-08-01T10:22:02;4.28;;;3.90;;
20657;SDS011;10488;50.846;4.078;2022-08-01T10:24:30;5.85;;;3.92;;
20657;SDS011;10488;50.846;4.078;2022-08-01T10:27:03;5.38;;;3.78;;
20657;SDS011;10488;50.846;4.078;2022-08-01T10:29:40;4.88;;;4.35;;
20657;SDS011;10488;50.846;4.078;2022-08-01T10:32:32;3.90;;;3.60;;
20657;SDS011;10488;50.846;4.078;2022-08-01T10:34:59;5.68;;;3.20;;
20657;SDS011;10488;50.846;4.078;2022-08-01T10:37:26;3.10;;;2.40;;
20657;SDS011;10488;50.846;4.078;2022-08-01T10:39:55;2.83;;;2.53;;
20657;SDS011;10488;50.846;4.078;2022-08-01T10:42:22;4.10;;;2.42;;
20657;SDS011;10488;50.846;4.078;2022-08-01T10:44:48;4.72;;;1.75;;
20657;SDS011;10488;50.846;4.078;2022-08-01T10:47:18;2.78;;;1.80;;
20657;SDS011;10488;50.846;4.078;2022-08-01T10:50:24;3.08;;;1.58;;
20657;SDS011;10488;50.846;4.078;2022-08-01T10:55:45;2.80;;;1.52;;
20657;SDS011;10488;50.846;4.078;2022-08-01T10:58:13;1.25;;;1.15;;
20657;SDS011;10488;50.846;4.078;2022-08-01T11:00:48;2.40;;;1.45;;
20657;SDS011;10488;50.846;4.078;2022-08-01T11:03:44;1.95;;;1.50;;
20657;SDS011;10488;50.846;4.078;2022-08-01T11:06:24;2.22;;;1.20;;
20657;SDS011;10488;50.846;4.078;2022-08-01T11:08:53;1.67;;;0.90;;
20657;SDS011;10488;50.846;4.078;2022-08-01T11:11:20;0.80;;;0.73;;
20657;SDS011;10488;50.846;4.078;2022-08-01T11:14:02;2.17;;;1.10;;
20657;SDS011;10488;50.846;4.078;2022-08-01T11:16:32;2.85;;;0.70;;
20657;SDS011;10488;50.846;4.078;2022-08-01T11:19:00;0.75;;;0.60;;
20657;SDS011;10488;50.846;4.078;2022-08-01T11:30:27;0.85;;;0.60;;
20657;SDS011;10488;50.846;4.078;2022-08-01T11:32:50;5.85;;;1.40;;
20657;SDS011;10488;50.846;4.078;2022-08-01T11:35:24;3.38;;;0.98;;
20657;SDS011;10488;50.846;4.078;2022-08-01T11:37:52;1.63;;;0.50;;
20657;SDS011;10488;50.846;4.078;2022-08-01T11:40:27;0.40;;;0.40;;
20657;SDS011;10488;50.846;4.078;2022-08-01T11:45:51;3.05;;;0.70;;
20657;SDS011;10488;50.846;4.078;2022-08-01T11:48:21;2.55;;;0.63;;
20657;SDS011;10488;50.846;4.078;2022-08-01T11:50:54;2.25;;;0.70;;
20657;SDS011;10488;50.846;4.078;2022-08-01T11:53:22;0.77;;;0.77;;
20657;SDS011;10488;50.846;4.078;2022-08-01T11:55:49;1.15;;;0.80;;
20657;SDS011;10488;50.846;4.078;2022-08-01T11:58:20;2.67;;;1.25;;
20657;SDS011;10488;50.846;4.078;2022-08-01T12:00:54;1.85;;;1.40;;
20657;SDS011;10488;50.846;4.078;2022-08-01T12:05:53;6.97;;;2.10;;
20657;SDS011;10488;50.846;4.078;2022-08-01T12:08:29;4.53;;;2.08;;
20657;SDS011;10488;50.846;4.078;2022-08-01T12:11:00;2.38;;;1.52;;
20657;SDS011;10488;50.846;4.078;2022-08-01T12:13:27;2.88;;;1.90;;
20657;SDS011;10488;50.846;4.078;2022-08-01T12:16:07;2.22;;;1.85;;
20657;SDS011;10488;50.846;4.078;2022-08-01T12:18:37;2.92;;;2.20;;
20657;SDS011;10488;50.846;4.078;2022-08-01T12:21:04;1.95;;;1.85;;
20657;SDS011;10488;50.846;4.078;2022-08-01T12:23:30;2.97;;;1.88;;
20657;SDS011;10488;50.846;4.078;2022-08-01T12:25:56;4.45;;;2.25;;
20657;SDS011;10488;50.846;4.078;2022-08-01T12:28:21;3.47;;;2.45;;
20657;SDS011;10488;50.846;4.078;2022-08-01T12:30:48;7.88;;;2.75;;
20657;SDS011;10488;50.846;4.078;2022-08-01T12:33:16;3.15;;;2.65;;
20657;SDS011;10488;50.846;4.078;2022-08-01T12:35:43;2.35;;;2.10;;
20657;SDS011;10488;50.846;4.078;2022-08-01T12:38:19;3.38;;;2.55;;
20657;SDS011;10488;50.846;4.078;2022-08-01T12:40:51;2.88;;;2.50;;
20657;SDS011;10488;50.846;4.078;2022-08-01T12:43:18;3.47;;;2.20;;
20657;SDS011;10488;50.846;4.078;2022-08-01T12:45:45;3.45;;;1.90;;
20657;SDS011;10488;50.846;4.078;2022-08-01T12:48:14;4.03;;;1.90;;
20657;SDS011;10488;50.846;4.078;2022-08-01T12:50:42;4.18;;;2.80;;
20657;SDS011;10488;50.846;4.078;2022-08-01T12:53:10;3.22;;;2.28;;
20657;SDS011;10488;50.846;4.078;2022-08-01T12:55:49;2.08;;;1.20;;
20657;SDS011;10488;50.846;4.078;2022-08-01T12:58:17;3.92;;;1.50;;
20657;SDS011;10488;50.846;4.078;2022-08-01T13:00:44;4.25;;;1.70;;
20657;SDS011;10488;50.846;4.078;2022-08-01T13:03:12;1.98;;;1.58;;
20657;SDS011;10488;50.846;4.078;2022-08-01T13:05:46;1.85;;;1.45;;
20657;SDS011;10488;50.846;4.078;2022-08-01T13:08:18;2.70;;;1.10;;
20657;SDS011;10488;50.846;4.078;2022-08-01T13:10:45;1.38;;;1.20;;
20657;SDS011;10488;50.846;4.078;2022-08-01T13:13:12;2.30;;;1.50;;
20657;SDS011;10488;50.846;4.078;2022-08-01T13:15:40;2.55;;;1.10;;
20657;SDS011;10488;50.846;4.078;2022-08-01T13:18:29;1.33;;;1.10;;
20657;SDS011;10488;50.846;4.078;2022-08-01T13:21:15;2.33;;;1.73;;
20657;SDS011;10488;50.846;4.078;2022-08-01T13:24:05;3.22;;;1.48;;
20657;SDS011;10488;50.846;4.078;2022-08-01T13:26:38;3.08;;;1.58;;
20657;SDS011;10488;50.846;4.078;2022-08-01T13:29:08;1.45;;;1.30;;
20657;SDS011;10488;50.846;4.078;2022-08-01T13:31:35;2.33;;;1.45;;
20657;SDS011;10488;50.846;4.078;2022-08-01T13:34:02;3.58;;;1.48;;
20657;SDS011;10488;50.846;4.078;2022-08-01T13:36:27;1.95;;;0.85;;
20657;SDS011;10488;50.846;4.078;2022-08-01T13:38:54;1.00;;;0.90;;
20657;SDS011;10488;50.846;4.078;2022-08-01T13:41:38;2.10;;;0.80;;
20657;SDS011;10488;50.846;4.078;2022-08-01T13:44:05;1.85;;;1.10;;
20657;SDS011;10488;50.846;4.078;2022-08-01T13:46:31;1.17;;;0.95;;
20657;SDS011;10488;50.846;4.078;2022-08-01T13:48:57;0.93;;;0.85;;
20657;SDS011;10488;50.846;4.078;2022-08-01T13:51:22;3.83;;;1.05;;
20657;SDS011;10488;50.846;4.078;2022-08-01T13:53:48;2.00;;;1.05;;
20657;SDS011;10488;50.846;4.078;2022-08-01T13:56:13;2.17;;;1.25;;
20657;SDS011;10488;50.846;4.078;2022-08-01T13:58:41;2.50;;;1.48;;
20657;SDS011;10488;50.846;4.078;2022-08-01T14:01:06;4.10;;;1.00;;
20657;SDS011;10488;50.846;4.078;2022-08-01T14:03:32;3.58;;;1.25;;
20657;SDS011;10488;50.846;4.078;2022-08-01T14:05:58;1.23;;;1.02;;
20657;SDS011;10488;50.846;4.078;2022-08-01T14:08:23;2.45;;;0.98;;
20657;SDS011;10488;50.846;4.078;2022-08-01T14:10:49;1.98;;;0.70;;
20657;SDS011;10488;50.846;4.078;2022-08-01T14:13:16;3.25;;;0.90;;
20657;SDS011;10488;50.846;4.078;2022-08-01T14:15:42;1.80;;;1.00;;
20657;SDS011;10488;50.846;4.078;2022-08-01T14:18:08;4.10;;;1.10;;
20657;SDS011;10488;50.846;4.078;2022-08-01T14:20:34;1.73;;;0.90;;
20657;SDS011;10488;50.846;4.078;2022-08-01T14:23:00;4.80;;;0.98;;
20657;SDS011;10488;50.846;4.078;2022-08-01T14:25:26;1.63;;;0.90;;
20657;SDS011;10488;50.846;4.078;2022-08-01T14:27:51;5.70;;;1.00;;
20657;SDS011;10488;50.846;4.078;2022-08-01T14:30:17;6.00;;;1.40;;
20657;SDS011;10488;50.846;4.078;2022-08-01T14:32:43;6.30;;;1.20;;
20657;SDS011;10488;50.846;4.078;2022-08-01T14:35:08;2.70;;;0.90;;
20657;SDS011;10488;50.846;4.078;2022-08-01T14:37:34;1.85;;;0.95;;
20657;SDS011;10488;50.846;4.078;2022-08-01T14:40:00;2.58;;;1.25;;
20657;SDS011;10488;50.846;4.078;2022-08-01T14:42:32;1.55;;;1.00;;
20657;SDS011;10488;50.846;4.078;2022-08-01T14:44:58;1.52;;;0.70;;
20657;SDS011;10488;50.846;4.078;2022-08-01T14:47:24;2.47;;;0.65;;
20657;SDS011;10488;50.846;4.078;2022-08-01T14:49:50;1.83;;;0.98;;
20657;SDS011;10488;50.846;4.078;2022-08-01T14:52:16;4.25;;;1.27;;
20657;SDS011;10488;50.846;4.078;2022-08-01T14:54:42;2.88;;;1.20;;
20657;SDS011;10488;50.846;4.078;2022-08-01T14:57:08;2.58;;;1.40;;
20657;SDS011;10488;50.846;4.078;2022-08-01T14:59:34;4.25;;;1.02;;
20657;SDS011;10488;50.846;4.078;2022-08-01T15:02:00;1.55;;;1.13;;
20657;SDS011;10488;50.846;4.078;2022-08-01T15:04:25;2.97;;;1.17;;
20657;SDS011;10488;50.846;4.078;2022-08-01T15:06:51;2.38;;;0.98;;
20657;SDS011;10488;50.846;4.078;2022-08-01T15:09:17;1.27;;;0.82;;
20657;SDS011;10488;50.846;4.078;2022-08-01T15:11:42;4.38;;;1.25;;
20657;SDS011;10488;50.846;4.078;2022-08-01T15:14:08;1.83;;;1.05;;
20657;SDS011;10488;50.846;4.078;2022-08-01T15:16:52;0.95;;;0.90;;
20657;SDS011;10488;50.846;4.078;2022-08-01T15:19:18;5.68;;;1.23;;
20657;SDS011;10488;50.846;4.078;2022-08-01T15:21:44;2.92;;;1.23;;